createdAt,value
2018-02-24T00:01:30.551Z,20.63
2018-02-24T00:03:58.059Z,21.77
2018-02-24T00:06:25.511Z,22.70
2018-02-24T00:08:52.953Z,23.30
2018-02-24T00:11:20.391Z,21.40
2018-02-24T00:13:47.847Z,20.85
2018-02-24T00:16:15.286Z,21.47
2018-02-24T00:18:42.767Z,21.53
2018-02-24T00:21:10.214Z,22.93
2018-02-24T00:23:37.667Z,24.00
2018-02-24T00:26:05.148Z,23.73
2018-02-24T00:28:32.636Z,22.47
2018-02-24T00:31:00.071Z,21.60
2018-02-24T00:33:27.524Z,20.63
2018-02-24T00:35:54.974Z,22.47
2018-02-24T00:38:22.437Z,23.60
2018-02-24T00:40:49.870Z,23.80
2018-02-24T00:43:17.340Z,20.90
2018-02-24T00:45:44.777Z,20.57
2018-02-24T00:48:12.209Z,20.77
2018-02-24T00:50:39.663Z,22.40
2018-02-24T00:53:07.112Z,20.77
2018-02-24T00:55:34.556Z,20.67
2018-02-24T00:58:02.012Z,22.33
2018-02-24T01:00:29.479Z,20.33
2018-02-24T01:02:57.063Z,21.10
2018-02-24T01:05:24.512Z,20.77
2018-02-24T01:07:51.955Z,21.50
2018-02-24T01:10:19.482Z,20.33
2018-02-24T01:12:46.937Z,22.67
2018-02-24T01:15:14.371Z,19.13
2018-02-24T01:17:41.802Z,22.47
2018-02-24T01:20:09.243Z,22.27
2018-02-24T01:22:36.687Z,22.33
2018-02-24T01:25:04.127Z,22.73
2018-02-24T01:27:31.583Z,23.17
2018-02-24T01:29:59.027Z,21.53
2018-02-24T01:32:26.464Z,20.67
2018-02-24T01:34:53.918Z,21.30
2018-02-24T01:37:21.410Z,22.07
2018-02-24T01:39:48.888Z,20.50
2018-02-24T01:42:16.404Z,20.83
2018-02-24T01:44:43.848Z,21.40
2018-02-24T01:47:11.284Z,21.87
2018-02-24T01:49:38.729Z,22.03
2018-02-24T01:52:06.184Z,22.20
2018-02-24T01:54:33.626Z,24.83
2018-02-24T01:57:01.457Z,23.83
2018-02-24T01:59:28.923Z,22.77
2018-02-24T02:01:56.367Z,22.03
2018-02-24T02:04:23.831Z,21.50
2018-02-24T02:06:51.287Z,20.70
2018-02-24T02:09:18.772Z,22.50
2018-02-24T02:11:46.230Z,22.67
2018-02-24T02:14:13.681Z,22.63
2018-02-24T02:16:41.138Z,22.30
2018-02-24T02:19:08.582Z,20.93
2018-02-24T02:21:36.022Z,23.60
2018-02-24T02:24:03.458Z,23.63
2018-02-24T02:26:30.917Z,21.80
2018-02-24T02:28:58.355Z,21.20
2018-02-24T02:31:25.809Z,23.77
2018-02-24T02:33:58.268Z,23.20
2018-02-24T02:36:25.720Z,21.73
2018-02-24T02:38:53.279Z,21.57
2018-02-24T02:41:20.735Z,22.37
2018-02-24T02:43:48.167Z,23.17
2018-02-24T02:46:15.612Z,24.23
2018-02-24T02:48:43.071Z,25.17
2018-02-24T02:51:10.568Z,22.00
2018-02-24T02:53:38.020Z,22.43
2018-02-24T02:56:05.473Z,22.47
2018-02-24T02:58:32.933Z,22.03
2018-02-24T03:01:00.384Z,24.17
2018-02-24T03:03:27.837Z,26.20
2018-02-24T03:05:55.276Z,22.00
2018-02-24T03:08:22.717Z,24.50
2018-02-24T03:10:50.226Z,24.53
2018-02-24T03:13:18.295Z,22.42
2018-02-24T03:15:45.729Z,22.60
2018-02-24T03:18:13.175Z,21.60
2018-02-24T03:20:40.619Z,20.63
2018-02-24T03:23:08.123Z,21.77
2018-02-24T03:25:35.682Z,22.17
2018-02-24T03:28:03.147Z,22.73
2018-02-24T03:30:30.595Z,23.27
2018-02-24T03:32:58.046Z,22.93
2018-02-24T03:35:25.484Z,23.27
2018-02-24T03:37:52.980Z,21.97
2018-02-24T03:40:20.422Z,19.90
2018-02-24T03:42:47.861Z,20.77
2018-02-24T03:45:15.305Z,21.30
2018-02-24T03:47:42.955Z,20.63
2018-02-24T03:50:10.388Z,20.53
2018-02-24T03:52:37.833Z,20.87
2018-02-24T03:55:05.284Z,21.57
2018-02-24T03:57:32.736Z,22.30
2018-02-24T04:00:00.175Z,20.67
2018-02-24T04:02:27.641Z,21.40
2018-02-24T04:04:55.088Z,21.83
2018-02-24T04:07:22.527Z,23.07
2018-02-24T04:09:50.089Z,19.87
2018-02-24T04:12:17.829Z,22.00
2018-02-24T04:14:45.290Z,20.53
2018-02-24T04:17:12.743Z,20.20
2018-02-24T04:19:40.205Z,21.47
2018-02-24T04:22:07.639Z,21.57
2018-02-24T04:24:35.090Z,22.50
2018-02-24T04:27:02.530Z,21.43
2018-02-24T04:29:29.963Z,20.73
2018-02-24T04:31:57.411Z,19.60
2018-02-24T04:34:24.850Z,21.77
2018-02-24T04:36:52.290Z,20.43
2018-02-24T04:39:19.744Z,27.50
2018-02-24T04:41:47.176Z,23.97
2018-02-24T04:44:14.640Z,22.40
2018-02-24T04:46:42.192Z,20.17
2018-02-24T04:49:09.636Z,20.43
2018-02-24T04:51:37.084Z,20.37
2018-02-24T04:54:04.532Z,19.70
2018-02-24T04:56:31.971Z,21.77
2018-02-24T04:58:59.408Z,21.10
2018-02-24T05:01:26.938Z,20.10
2018-02-24T05:03:54.372Z,21.42
2018-02-24T05:06:22.623Z,21.90
2018-02-24T05:08:50.076Z,22.20
2018-02-24T05:11:17.527Z,21.73
2018-02-24T05:13:45.127Z,23.30
2018-02-24T05:16:12.568Z,20.43
2018-02-24T05:18:40.023Z,21.50
2018-02-24T05:21:07.459Z,18.70
2018-02-24T05:23:34.929Z,19.63
2018-02-24T05:26:02.441Z,20.20
2018-02-24T05:28:29.880Z,20.83
2018-02-24T05:30:57.327Z,20.70
2018-02-24T05:33:24.812Z,20.57
2018-02-24T05:35:52.253Z,21.33
2018-02-24T05:38:20.440Z,20.73
2018-02-24T05:40:47.878Z,19.10
2018-02-24T05:43:15.357Z,23.17
2018-02-24T05:45:42.818Z,20.33
2018-02-24T05:48:10.260Z,19.60
2018-02-24T05:50:37.696Z,18.57
2018-02-24T05:53:05.144Z,19.17
2018-02-24T05:55:32.644Z,19.70
2018-02-24T05:58:00.168Z,17.80
2018-02-24T06:00:27.626Z,22.23
2018-02-24T06:02:55.078Z,19.70
2018-02-24T06:05:22.624Z,20.13
2018-02-24T06:07:50.111Z,19.17
2018-02-24T06:10:17.547Z,21.23
2018-02-24T06:12:45.003Z,20.67
2018-02-24T06:15:12.460Z,19.33
2018-02-24T06:17:39.902Z,35.33
2018-02-24T06:20:07.389Z,20.97
2018-02-24T06:22:34.833Z,20.65
2018-02-24T06:25:02.267Z,21.27
2018-02-24T06:27:29.772Z,19.03
2018-02-24T06:29:57.216Z,17.40
2018-02-24T06:32:24.652Z,18.77
2018-02-24T06:34:52.128Z,19.23
2018-02-24T06:37:19.589Z,18.70
2018-02-24T06:39:47.022Z,18.67
2018-02-24T06:42:14.458Z,17.77
2018-02-24T06:44:41.913Z,19.07
2018-02-24T06:47:09.346Z,19.03
2018-02-24T06:49:36.914Z,18.47
2018-02-24T06:52:04.369Z,21.77
2018-02-24T06:54:31.823Z,18.17
2018-02-24T06:56:59.321Z,19.80
2018-02-24T06:59:26.783Z,20.40
2018-02-24T07:01:54.273Z,20.60
2018-02-24T07:04:21.723Z,19.80
2018-02-24T07:11:43.130Z,22.95
2018-02-24T07:14:10.576Z,23.90
2018-02-24T07:16:38.015Z,21.03
2018-02-24T07:19:05.465Z,20.70
2018-02-24T07:21:32.935Z,19.70
2018-02-24T07:24:00.398Z,20.37
2018-02-24T07:26:27.866Z,19.53
2018-02-24T07:28:55.420Z,19.37
2018-02-24T07:31:22.854Z,19.70
2018-02-24T07:33:50.295Z,16.70
2018-02-24T07:36:17.790Z,19.13
2018-02-24T07:38:45.240Z,19.27
2018-02-24T07:41:12.688Z,18.93
2018-02-24T07:43:40.160Z,19.57
2018-02-24T07:46:07.612Z,19.93
2018-02-24T07:48:35.051Z,19.07
2018-02-24T07:51:02.520Z,19.77
2018-02-24T07:53:30.360Z,19.13
2018-02-24T07:55:57.820Z,18.27
2018-02-24T07:58:25.314Z,17.93
2018-02-24T08:00:52.766Z,21.60
2018-02-24T08:03:20.228Z,20.03
2018-02-24T08:05:47.679Z,17.83
2018-02-24T08:08:15.115Z,17.97
2018-02-24T08:10:42.595Z,17.47
2018-02-24T08:13:10.055Z,18.83
2018-02-24T08:15:37.651Z,18.90
2018-02-24T08:18:05.174Z,16.20
2018-02-24T08:20:32.635Z,18.53
2018-02-24T08:23:00.091Z,18.37
2018-02-24T08:25:27.535Z,18.33
2018-02-24T08:27:54.990Z,17.23
2018-02-24T08:30:22.437Z,17.47
2018-02-24T08:32:49.953Z,17.77
2018-02-24T08:35:17.386Z,18.00
2018-02-24T08:37:44.912Z,19.30
2018-02-24T08:40:12.358Z,16.50
2018-02-24T08:42:39.814Z,18.70
2018-02-24T08:45:07.254Z,15.07
2018-02-24T08:47:34.703Z,15.70
2018-02-24T08:50:02.224Z,16.07
2018-02-24T08:52:29.668Z,15.90
2018-02-24T08:54:57.114Z,17.10
2018-02-24T08:57:24.564Z,17.57
2018-02-24T08:59:52.003Z,15.53
2018-02-24T09:02:19.447Z,16.60
2018-02-24T09:04:46.906Z,17.27
2018-02-24T09:07:14.351Z,17.20
2018-02-24T09:09:41.797Z,15.47
2018-02-24T09:12:09.251Z,16.30
2018-02-24T09:14:36.687Z,15.40
2018-02-24T09:17:04.122Z,17.10
2018-02-24T09:19:31.725Z,15.83
2018-02-24T09:21:59.174Z,17.70
2018-02-24T09:24:26.621Z,17.30
2018-02-24T09:26:54.058Z,16.70
2018-02-24T09:29:21.501Z,13.80
2018-02-24T09:31:48.942Z,16.93
2018-02-24T09:34:16.399Z,15.17
2018-02-24T09:36:43.831Z,13.27
2018-02-24T09:39:11.384Z,14.57
2018-02-24T09:41:38.941Z,16.73
2018-02-24T09:44:06.382Z,14.90
2018-02-24T09:46:33.849Z,14.87
2018-02-24T09:49:01.301Z,15.90
2018-02-24T09:51:29.751Z,15.30
2018-02-24T09:53:57.216Z,16.00
2018-02-24T09:56:24.701Z,15.50
2018-02-24T09:58:52.140Z,15.20
2018-02-24T10:01:19.619Z,15.17
2018-02-24T10:03:47.069Z,15.73
2018-02-24T10:06:14.508Z,14.83
2018-02-24T10:08:41.992Z,15.90
2018-02-24T10:11:09.410Z,16.30
2018-02-24T10:13:36.906Z,15.80
2018-02-24T10:16:04.336Z,15.50
2018-02-24T10:18:31.815Z,14.63
2018-02-24T10:20:59.890Z,14.97
2018-02-24T10:23:27.323Z,16.40
2018-02-24T10:25:54.774Z,12.93
2018-02-24T10:28:22.206Z,13.47
2018-02-24T10:30:49.638Z,13.97
2018-02-24T10:33:17.142Z,14.13
2018-02-24T10:35:44.648Z,12.13
2018-02-24T10:38:12.083Z,22.93
2018-02-24T10:40:39.584Z,15.60
2018-02-24T10:43:07.122Z,15.05
2018-02-24T10:45:34.556Z,12.27
2018-02-24T10:48:02.011Z,15.05
2018-02-24T10:50:29.504Z,13.60
2018-02-24T10:52:56.952Z,15.53
2018-02-24T10:55:24.516Z,15.23
2018-02-24T10:57:51.994Z,16.87
2018-02-24T11:00:19.437Z,15.93
2018-02-24T11:02:46.987Z,17.20
2018-02-24T11:05:14.508Z,15.40
2018-02-24T11:07:41.947Z,15.87
2018-02-24T11:12:36.403Z,16.53
2018-02-24T11:15:03.860Z,15.07
2018-02-24T11:17:31.443Z,15.03
2018-02-24T11:19:58.909Z,15.70
2018-02-24T11:22:26.347Z,14.75
2018-02-24T11:27:20.774Z,15.75
2018-02-24T11:29:48.225Z,15.30
2018-02-24T11:32:15.683Z,33.10
2018-02-24T11:34:43.250Z,17.40
2018-02-24T11:37:10.691Z,16.03
2018-02-24T11:42:08.086Z,16.87
2018-02-24T11:44:35.532Z,16.57
2018-02-24T11:47:02.980Z,13.70
2018-02-24T11:49:30.432Z,14.03
2018-02-24T12:04:12.978Z,13.15
2018-02-24T12:06:40.472Z,12.43
2018-02-24T12:09:08.168Z,13.10
2018-02-24T12:11:35.691Z,12.20
2018-02-24T12:14:03.159Z,9.80
2018-02-24T12:16:30.613Z,8.60
2018-02-24T12:18:58.063Z,8.13
2018-02-24T12:21:25.491Z,7.40
2018-02-24T12:23:52.937Z,7.20
2018-02-24T12:26:20.363Z,8.60
2018-02-24T13:47:30.615Z,22.52
2018-02-24T13:49:58.072Z,21.40
2018-02-24T13:52:25.514Z,24.37
2018-02-24T13:54:52.996Z,17.77
2018-02-24T13:57:20.464Z,16.80
2018-02-24T13:59:47.910Z,15.03
2018-02-24T14:02:15.386Z,17.97
2018-02-24T14:04:42.830Z,16.00
2018-02-24T14:07:10.287Z,15.40
2018-02-24T14:09:37.756Z,16.40
2018-02-24T14:12:05.208Z,15.20
2018-02-24T14:14:32.648Z,15.83
2018-02-24T14:17:00.112Z,16.20
2018-02-24T14:19:27.564Z,15.20
2018-02-24T14:21:55.003Z,15.13
2018-02-24T14:24:22.444Z,15.00
2018-02-24T14:26:49.885Z,15.10
2018-02-24T14:29:17.399Z,13.03
2018-02-24T14:31:44.837Z,12.77
2018-02-24T14:34:12.283Z,12.10
2018-02-24T14:36:40.031Z,13.43
2018-02-24T14:39:07.507Z,12.43
2018-02-24T14:41:35.079Z,12.60
2018-02-24T14:44:02.515Z,12.27
2018-02-24T14:46:30.019Z,12.80
2018-02-24T14:48:57.509Z,11.20
2018-02-24T14:51:25.123Z,11.40
2018-02-24T14:53:52.611Z,12.77
2018-02-24T14:56:20.057Z,12.43
2018-02-24T14:58:47.506Z,12.03
2018-02-24T15:01:14.938Z,11.93
2018-02-24T15:03:42.394Z,11.40
2018-02-24T15:06:09.834Z,11.30
2018-02-24T15:08:37.262Z,11.67
2018-02-24T15:11:04.707Z,11.00
2018-02-24T15:13:32.148Z,11.20
2018-02-24T15:15:59.584Z,12.00
2018-02-24T15:18:27.044Z,11.73
2018-02-24T15:20:54.480Z,12.17
2018-02-24T15:23:21.964Z,11.80
2018-02-24T15:25:49.431Z,11.60
2018-02-24T15:28:16.867Z,11.63
2018-02-24T15:30:44.461Z,11.80
2018-02-24T15:33:11.913Z,11.40
2018-02-24T15:35:39.359Z,10.80
2018-02-24T15:38:06.831Z,12.73
2018-02-24T15:40:34.330Z,12.27
2018-02-24T15:43:01.769Z,10.60
2018-02-24T15:45:29.307Z,9.70
2018-02-24T15:47:56.864Z,9.57
2018-02-24T15:50:24.291Z,9.77
2018-02-24T15:52:51.923Z,8.90
2018-02-24T15:55:19.369Z,8.47
2018-02-24T15:57:46.794Z,9.07
2018-02-24T16:00:14.225Z,9.47
2018-02-24T16:02:41.668Z,9.10
2018-02-24T16:05:09.090Z,6.87
2018-02-24T16:07:36.620Z,7.80
2018-02-24T16:10:04.080Z,8.30
2018-02-24T16:12:31.506Z,8.53
2018-02-24T16:14:59.048Z,6.43
2018-02-24T16:17:26.552Z,7.83
2018-02-24T16:19:54.010Z,7.23
2018-02-24T16:22:21.457Z,7.60
2018-02-24T16:24:48.899Z,5.90
2018-02-24T16:27:16.348Z,9.23
2018-02-24T16:29:44.051Z,8.70
2018-02-24T16:32:11.491Z,6.40
2018-02-24T16:34:38.924Z,5.53
2018-02-24T16:37:06.352Z,6.30
2018-02-24T16:39:33.872Z,6.27
2018-02-24T16:42:01.303Z,7.03
2018-02-24T16:44:28.794Z,6.23
2018-02-24T16:46:56.229Z,6.30
2018-02-24T16:49:23.761Z,5.83
2018-02-24T16:51:51.187Z,6.50
2018-02-24T16:54:18.738Z,10.40
2018-02-24T16:56:46.177Z,11.30
2018-02-24T16:59:13.743Z,6.93
2018-02-24T17:01:41.509Z,6.03
2018-02-24T17:04:08.952Z,5.97
2018-02-24T17:06:36.420Z,6.40
2018-02-24T17:09:03.881Z,6.50
2018-02-24T17:11:31.332Z,6.30
2018-02-24T17:13:58.767Z,7.43
2018-02-24T17:16:26.256Z,6.63
2018-02-24T17:18:53.775Z,6.30
2018-02-24T17:21:21.204Z,6.03
2018-02-24T17:23:48.752Z,8.77
2018-02-24T17:26:16.288Z,6.53
2018-02-24T17:28:43.749Z,6.20
2018-02-24T17:31:11.203Z,6.90
2018-02-24T17:33:38.703Z,6.00
2018-02-24T17:36:06.199Z,6.40
2018-02-24T17:38:33.653Z,6.13
2018-02-24T17:41:01.095Z,6.53
2018-02-24T17:43:28.527Z,6.63
2018-02-24T17:45:55.967Z,32.60
2018-02-24T17:48:23.404Z,36.57
2018-02-24T17:50:50.962Z,41.20
2018-02-24T17:53:18.413Z,40.37
2018-02-24T17:55:45.842Z,36.50
2018-02-24T17:58:13.292Z,35.90
2018-02-24T18:00:40.734Z,30.00
2018-02-24T18:03:08.182Z,25.40
2018-02-24T18:05:35.621Z,19.90
2018-02-24T18:08:03.072Z,17.37
2018-02-24T18:10:30.512Z,17.47
2018-02-24T18:12:57.976Z,15.80
2018-02-24T18:15:25.516Z,13.93
2018-02-24T18:17:52.952Z,14.57
2018-02-24T18:20:21.224Z,15.07
2018-02-24T18:22:48.672Z,15.03
2018-02-24T18:25:16.160Z,13.90
2018-02-24T18:27:43.712Z,13.97
2018-02-24T18:30:11.203Z,14.00
2018-02-24T18:32:38.639Z,14.00
2018-02-24T18:35:06.075Z,13.77
2018-02-24T18:37:33.533Z,14.53
2018-02-24T18:40:00.975Z,14.50
2018-02-24T18:42:28.411Z,12.53
2018-02-24T18:44:55.863Z,13.63
2018-02-24T18:47:23.379Z,12.70
2018-02-24T18:49:50.821Z,12.70
2018-02-24T18:52:18.315Z,12.40
2018-02-24T18:54:45.845Z,12.43
2018-02-24T18:57:13.288Z,12.60
2018-02-24T18:59:40.786Z,11.97
2018-02-24T19:02:08.220Z,12.27
2018-02-24T19:04:35.660Z,12.30
2018-02-24T19:07:03.117Z,12.77
2018-02-24T19:09:30.554Z,12.30
2018-02-24T19:11:58.436Z,10.70
2018-02-24T19:14:25.940Z,13.60
2018-02-24T19:16:53.335Z,12.20
2018-02-24T19:19:20.847Z,12.35
2018-02-24T19:21:48.290Z,11.73
2018-02-24T19:24:15.729Z,7.70
2018-02-24T19:26:43.236Z,7.57
2018-02-24T19:29:10.700Z,6.47
2018-02-24T19:31:38.147Z,7.40
2018-02-24T19:34:05.608Z,6.70
2018-02-24T19:36:33.063Z,7.33
2018-02-24T19:39:00.492Z,7.00
2018-02-24T19:41:27.937Z,5.63
2018-02-24T19:43:55.463Z,6.40
2018-02-24T19:46:22.878Z,6.57
2018-02-24T19:48:50.312Z,6.70
2018-02-24T19:51:17.767Z,6.10
2018-02-24T19:53:45.208Z,5.90
2018-02-24T19:56:12.662Z,5.63
2018-02-24T19:58:40.123Z,5.70
2018-02-24T20:01:07.565Z,5.57
2018-02-24T20:03:35.105Z,5.10
2018-02-24T20:06:02.578Z,5.83
2018-02-24T20:08:30.024Z,5.17
2018-02-24T20:10:57.482Z,6.20
2018-02-24T20:13:24.934Z,5.40
2018-02-24T20:15:52.399Z,6.47
2018-02-24T20:18:19.854Z,5.37
2018-02-24T20:20:47.320Z,5.43
2018-02-24T20:23:14.760Z,5.80
2018-02-24T20:25:42.215Z,4.93
2018-02-24T20:28:09.679Z,5.40
2018-02-24T20:30:37.133Z,5.40
2018-02-24T20:33:04.574Z,5.27
2018-02-24T20:35:32.300Z,5.40
2018-02-24T20:37:59.824Z,6.23
2018-02-24T20:40:27.469Z,5.57
2018-02-24T20:42:54.931Z,6.60
2018-02-24T20:45:22.372Z,6.73
2018-02-24T20:47:49.827Z,5.50
2018-02-24T20:50:17.282Z,5.63
2018-02-24T20:52:44.731Z,5.90
2018-02-24T20:55:12.187Z,5.60
2018-02-24T20:57:39.633Z,5.87
2018-02-24T21:00:07.097Z,5.20
2018-02-24T21:02:34.531Z,5.30
2018-02-24T21:05:01.983Z,6.77
2018-02-24T21:07:29.426Z,5.70
2018-02-24T21:09:56.917Z,7.10
2018-02-24T21:12:24.343Z,6.00
2018-02-24T21:14:51.796Z,5.50
2018-02-24T21:17:19.222Z,6.03
2018-02-24T21:19:46.670Z,4.77
2018-02-24T21:22:14.114Z,5.20
2018-02-24T21:24:41.567Z,5.10
2018-02-24T21:27:09.020Z,5.40
2018-02-24T21:29:36.680Z,5.20
2018-02-24T21:32:04.107Z,5.20
2018-02-24T21:34:31.562Z,5.00
2018-02-24T21:36:59.004Z,4.90
2018-02-24T21:39:26.450Z,5.57
2018-02-24T21:41:53.913Z,5.17
2018-02-24T21:44:21.362Z,4.87
2018-02-24T21:46:48.808Z,5.90
2018-02-24T21:49:16.261Z,4.90
2018-02-24T21:51:43.708Z,6.57
2018-02-24T21:54:11.255Z,5.20
2018-02-24T21:56:38.715Z,6.63
2018-02-24T21:59:06.163Z,5.93
2018-02-24T22:01:33.601Z,5.87
2018-02-24T22:04:01.201Z,5.70
2018-02-24T22:06:28.689Z,5.40
2018-02-24T22:08:56.135Z,5.83
2018-02-24T22:11:23.606Z,5.93
2018-02-24T22:13:51.043Z,5.40
2018-02-24T22:16:18.487Z,5.30
2018-02-24T22:18:46.030Z,7.23
2018-02-24T22:21:13.500Z,5.83
2018-02-24T22:23:40.926Z,6.93
2018-02-24T22:26:08.369Z,6.07
2018-02-24T22:28:35.808Z,6.90
2018-02-24T22:31:03.248Z,6.67
2018-02-24T22:33:30.716Z,6.10
2018-02-24T22:35:58.157Z,7.10
2018-02-24T22:38:25.594Z,6.70
2018-02-24T22:40:53.373Z,6.97
2018-02-24T22:43:20.827Z,5.53
2018-02-24T22:45:48.276Z,6.43
2018-02-24T22:48:21.329Z,6.73
2018-02-24T22:50:48.781Z,7.10
2018-02-24T22:53:16.217Z,6.53
2018-02-24T22:55:43.677Z,5.93
2018-02-24T22:58:11.110Z,6.77
2018-02-24T23:00:38.547Z,7.63
2018-02-24T23:03:05.993Z,7.60
2018-02-24T23:05:33.503Z,7.10
2018-02-24T23:08:00.935Z,7.20
2018-02-24T23:10:28.433Z,8.20
2018-02-24T23:12:55.876Z,7.00
2018-02-24T23:15:23.318Z,7.30
2018-02-24T23:17:50.772Z,8.43
2018-02-24T23:20:18.242Z,8.10
2018-02-24T23:22:45.686Z,7.73
2018-02-24T23:25:13.127Z,8.50
2018-02-24T23:27:40.561Z,8.43
2018-02-24T23:30:07.996Z,7.73
2018-02-24T23:32:35.455Z,8.60
2018-02-24T23:35:02.888Z,7.20
2018-02-24T23:37:30.335Z,8.50
2018-02-24T23:39:57.793Z,8.33
2018-02-24T23:42:25.236Z,9.63
2018-02-24T23:44:52.687Z,7.43
2018-02-24T23:47:20.141Z,8.27
2018-02-24T23:49:47.671Z,7.93
2018-02-24T23:52:15.112Z,8.40
2018-02-24T23:54:42.554Z,8.33
2018-02-24T23:57:10.110Z,8.87
2018-02-24T23:59:37.611Z,8.57
